Time;durP1;ratioP1;P1;durP2;ratioP2;P2;SDS_P1;SDS_P2;PMS_P1;PMS_P2;Temp;Humidity;BMP_temperature;BMP_pressure;BME280_temperature;BME280_humidity;BME280_pressure;Samples;Min_cycle;Max_cycle;Signal;HPM_P1;HPM_P2
2023/07/16 00:00:04;;;;;;;14.27;3.70;;;16.90;99.90;;;;;;5124927;27;20039;-66
2023/07/16 00:02:30;;;;;;;10.05;3.03;;;16.90;99.90;;;;;;5105122;28;20047;-67
2023/07/16 00:04:56;;;;;;;12.93;3.33;;;16.90;99.90;;;;;;5091913;27;20053;-65
2023/07/16 00:07:22;;;;;;;13.05;3.20;;;16.80;99.90;;;;;;5106649;28;20082;-67
2023/07/16 00:09:48;;;;;;;11.02;3.13;;;16.80;99.90;;;;;;5105099;28;20180;-69
2023/07/16 00:12:13;;;;;;;15.20;3.15;;;16.80;99.90;;;;;;5105103;28;20039;-66
2023/07/16 00:14:39;;;;;;;12.70;3.30;;;16.80;99.90;;;;;;5089702;28;20542;-69
2023/07/16 00:17:04;;;;;;;8.75;2.80;;;16.80;99.90;;;;;;5106737;28;20090;-67
2023/07/16 00:19:30;;;;;;;14.77;3.20;;;16.70;99.90;;;;;;5104494;28;20179;-68
2023/07/16 00:21:55;;;;;;;10.65;2.97;;;16.70;99.90;;;;;;5106540;28;20042;-66
2023/07/16 00:24:21;;;;;;;15.27;3.80;;;16.70;99.90;;;;;;5124925;28;20051;-69
2023/07/16 00:26:47;;;;;;;11.20;3.50;;;16.70;99.90;;;;;;5122475;28;20042;-67
2023/07/16 00:29:12;;;;;;;14.00;3.25;;;16.70;99.90;;;;;;5124919;28;20075;-67
2023/07/16 00:31:38;;;;;;;11.27;3.67;;;16.60;99.90;;;;;;5106645;28;20128;-68
2023/07/16 00:34:03;;;;;;;12.48;3.40;;;16.60;99.90;;;;;;5123196;28;20095;-66
2023/07/16 00:36:31;;;;;;;12.02;3.00;;;16.60;99.90;;;;;;5123675;28;20035;-66
2023/07/16 00:38:57;;;;;;;10.25;3.03;;;16.50;99.90;;;;;;5105605;28;20894;-67
2023/07/16 00:41:23;;;;;;;8.85;2.60;;;16.50;99.90;;;;;;5104225;28;20148;-67
2023/07/16 00:43:48;;;;;;;13.20;3.10;;;16.50;99.90;;;;;;5089102;28;20558;-69
2023/07/16 00:46:14;;;;;;;10.43;2.83;;;16.50;99.90;;;;;;5124794;28;20489;-67
2023/07/16 00:48:41;;;;;;;12.10;3.10;;;16.40;99.90;;;;;;5106608;28;20035;-68
2023/07/16 00:51:07;;;;;;;12.45;3.55;;;16.40;99.90;;;;;;5123524;28;20458;-64
2023/07/16 00:53:33;;;;;;;10.77;2.95;;;16.30;99.90;;;;;;5124539;28;20110;-67
2023/07/16 00:55:59;;;;;;;14.68;3.45;;;16.30;99.90;;;;;;5123530;27;20039;-69
2023/07/16 00:58:25;;;;;;;11.38;3.47;;;16.30;99.90;;;;;;5109607;27;20046;-63
2023/07/16 01:00:51;;;;;;;14.05;3.10;;;16.40;99.90;;;;;;5127479;27;20066;-67
2023/07/16 01:03:17;;;;;;;11.32;3.50;;;16.40;99.90;;;;;;5110292;27;20410;-68
2023/07/16 01:06:00;;;;;;;14.10;3.38;;;16.50;99.90;;;;;;5092183;27;20050;-65
2023/07/16 01:08:40;;;;;;;13.45;3.75;;;16.50;99.90;;;;;;5109328;27;20123;-66
2023/07/16 01:11:07;;;;;;;12.48;3.03;;;16.60;99.90;;;;;;5108223;27;20142;-68
2023/07/16 01:13:33;;;;;;;15.45;4.00;;;16.70;99.90;;;;;;5109764;27;20035;-65
2023/07/16 01:15:59;;;;;;;11.85;2.90;;;16.70;99.90;;;;;;5127789;27;20027;-67
2023/07/16 01:18:25;;;;;;;15.70;3.00;;;16.70;99.90;;;;;;5109418;27;20046;-66
2023/07/16 01:20:51;;;;;;;13.23;3.25;;;16.70;99.90;;;;;;5126974;27;20035;-67
2023/07/16 01:23:22;;;;;;;14.65;3.35;;;16.70;99.90;;;;;;5109893;27;20042;-67
2023/07/16 01:25:56;;;;;;;13.45;3.42;;;16.70;99.90;;;;;;5126941;27;20414;-65
2023/07/16 01:28:45;;;;;;;12.38;2.97;;;16.60;99.90;;;;;;5127507;27;20174;-66
2023/07/16 01:31:11;;;;;;;14.70;3.05;;;16.60;99.90;;;;;;5127983;27;20082;-63
2023/07/16 01:33:39;;;;;;;12.82;3.45;;;16.50;99.90;;;;;;5127013;27;20035;-66
2023/07/16 01:36:07;;;;;;;12.75;3.05;;;16.50;99.90;;;;;;5127199;27;20121;-68
2023/07/16 01:38:33;;;;;;;16.75;3.42;;;16.50;99.90;;;;;;5108955;27;20057;-66
2023/07/16 01:40:59;;;;;;;11.75;3.50;;;16.40;99.90;;;;;;5080387;28;20206;-67
2023/07/16 01:43:24;;;;;;;17.63;3.35;;;16.40;99.90;;;;;;5089104;28;20050;-67
2023/07/16 01:45:50;;;;;;;16.17;3.30;;;16.40;99.90;;;;;;5109235;27;20035;-67
2023/07/16 01:48:37;;;;;;;12.50;3.30;;;16.30;99.90;;;;;;5127187;27;20267;-66
2023/07/16 01:51:04;;;;;;;14.77;3.80;;;16.30;99.90;;;;;;5107972;27;20135;-67
2023/07/16 01:53:29;;;;;;;15.05;3.30;;;16.20;99.90;;;;;;5108875;27;20035;-66
2023/07/16 01:55:55;;;;;;;13.20;3.13;;;16.20;99.90;;;;;;5107513;27;20525;-67
2023/07/16 01:58:21;;;;;;;13.25;3.30;;;16.20;99.90;;;;;;5126780;27;20042;-68
2023/07/16 02:00:49;;;;;;;11.25;3.20;;;16.10;99.90;;;;;;5127306;27;20042;-66
2023/07/16 02:03:14;;;;;;;16.63;3.20;;;16.10;99.90;;;;;;5127057;27;20086;-67
2023/07/16 02:05:40;;;;;;;13.90;3.72;;;16.10;99.90;;;;;;5085997;28;20074;-66
2023/07/16 02:08:06;;;;;;;11.63;3.45;;;16.10;99.90;;;;;;5106006;28;20121;-67
2023/07/16 02:10:32;;;;;;;14.02;3.47;;;16.10;99.90;;;;;;5095273;27;20046;-64
2023/07/16 02:12:57;;;;;;;10.93;3.28;;;16.00;99.90;;;;;;5107946;27;20079;-66
2023/07/16 02:15:23;;;;;;;13.05;3.58;;;16.00;99.90;;;;;;5127055;27;20043;-66
2023/07/16 02:17:48;;;;;;;13.23;3.75;;;16.10;99.90;;;;;;5123669;27;20039;-65
2023/07/16 02:20:14;;;;;;;13.57;3.22;;;16.10;99.90;;;;;;5112699;27;20039;-65
2023/07/16 02:22:40;;;;;;;10.15;3.47;;;16.10;99.90;;;;;;5108770;27;20039;-66
2023/07/16 02:25:06;;;;;;;12.30;4.20;;;16.10;99.90;;;;;;5107291;27;20042;-67
2023/07/16 02:27:31;;;;;;;14.90;4.03;;;16.20;99.90;;;;;;5125765;27;20046;-64
2023/07/16 02:29:57;;;;;;;11.23;3.90;;;16.20;99.90;;;;;;5126515;27;20035;-65
2023/07/16 02:32:23;;;;;;;13.38;3.80;;;16.30;99.90;;;;;;5090705;27;20050;-68
2023/07/16 02:34:49;;;;;;;13.10;4.05;;;16.30;99.90;;;;;;5125368;27;20602;-64
2023/07/16 02:37:15;;;;;;;11.10;3.90;;;16.40;99.90;;;;;;5108535;27;20788;-66
2023/07/16 02:39:41;;;;;;;13.55;4.05;;;16.50;99.90;;;;;;5125478;27;20043;-69
2023/07/16 02:42:07;;;;;;;12.48;4.07;;;16.50;99.90;;;;;;5106899;27;20231;-63
2023/07/16 02:44:33;;;;;;;12.73;4.32;;;16.60;99.90;;;;;;5108644;27;20518;-67
2023/07/16 02:46:58;;;;;;;13.80;4.65;;;16.60;99.90;;;;;;5108458;27;20528;-67
2023/07/16 02:49:24;;;;;;;12.80;4.63;;;16.60;99.90;;;;;;5089764;27;20141;-65
2023/07/16 02:51:50;;;;;;;12.57;4.28;;;16.60;99.90;;;;;;5126804;27;20126;-66
2023/07/16 02:54:15;;;;;;;14.57;4.10;;;16.60;99.90;;;;;;5091211;27;20543;-65
2023/07/16 02:56:41;;;;;;;13.70;4.28;;;16.70;99.90;;;;;;5105870;27;20075;-67
2023/07/16 02:59:07;;;;;;;13.35;4.78;;;16.70;99.90;;;;;;5107578;27;20664;-64
2023/07/16 03:01:32;;;;;;;12.40;4.38;;;16.70;99.90;;;;;;5107299;27;20532;-67
2023/07/16 03:03:58;;;;;;;16.67;4.65;;;16.70;99.90;;;;;;5106445;27;20509;-68
2023/07/16 03:06:24;;;;;;;14.57;4.53;;;16.70;99.90;;;;;;5106883;27;20039;-66
2023/07/16 03:08:49;;;;;;;12.35;5.10;;;16.70;99.90;;;;;;5106714;27;20058;-67
2023/07/16 03:11:15;;;;;;;15.30;4.53;;;16.70;99.90;;;;;;5105662;27;20134;-70
2023/07/16 03:13:41;;;;;;;13.00;4.68;;;16.70;99.90;;;;;;5106099;27;20031;-67
2023/07/16 03:16:06;;;;;;;15.07;4.47;;;16.70;99.90;;;;;;5108125;27;20254;-68
2023/07/16 03:18:32;;;;;;;14.55;4.32;;;16.70;99.90;;;;;;5106000;27;20050;-67
2023/07/16 03:20:59;;;;;;;12.32;4.70;;;16.70;99.90;;;;;;5096822;27;20511;-65
2023/07/16 03:23:24;;;;;;;14.05;4.38;;;16.70;99.90;;;;;;5106030;27;20481;-69
2023/07/16 03:25:51;;;;;;;13.13;4.78;;;16.70;99.90;;;;;;5105653;27;20046;-65
2023/07/16 03:28:20;;;;;;;15.88;4.55;;;16.70;99.90;;;;;;5106625;27;20401;-65
2023/07/16 03:30:47;;;;;;;16.58;5.07;;;16.60;99.90;;;;;;5107123;27;20031;-65
2023/07/16 03:33:13;;;;;;;13.80;4.20;;;16.60;99.90;;;;;;5090475;27;20502;-65
2023/07/16 03:35:38;;;;;;;12.90;3.95;;;16.60;99.90;;;;;;5089273;27;20125;-67
2023/07/16 03:38:04;;;;;;;10.32;4.10;;;16.60;99.90;;;;;;5106974;27;20074;-65
2023/07/16 03:40:30;;;;;;;11.77;4.57;;;16.60;99.90;;;;;;5105455;27;20046;-68
2023/07/16 03:42:56;;;;;;;16.13;5.15;;;16.60;99.90;;;;;;5125051;27;20511;-64
2023/07/16 03:45:21;;;;;;;14.50;5.07;;;16.60;99.90;;;;;;5106464;27;20035;-64
2023/07/16 03:47:47;;;;;;;15.10;5.10;;;16.50;99.90;;;;;;5105503;27;20035;-67
2023/07/16 03:50:12;;;;;;;12.68;4.45;;;16.50;99.90;;;;;;5105768;27;20715;-66
2023/07/16 03:52:38;;;;;;;15.60;4.88;;;16.50;99.90;;;;;;5090272;27;20042;-69
2023/07/16 03:55:04;;;;;;;14.13;4.85;;;16.60;99.90;;;;;;5105452;27;20032;-67
2023/07/16 03:57:30;;;;;;;15.43;5.15;;;16.60;99.90;;;;;;5122992;27;20181;-67
2023/07/16 03:59:56;;;;;;;14.82;5.00;;;16.60;99.90;;;;;;5125615;27;20149;-65
2023/07/16 04:02:22;;;;;;;12.93;5.15;;;16.60;99.90;;;;;;5106854;27;20164;-66
2023/07/16 04:04:47;;;;;;;15.90;4.60;;;16.60;99.90;;;;;;5123725;27;20051;-69
2023/07/16 04:07:13;;;;;;;17.33;5.10;;;16.60;99.90;;;;;;5125522;27;20046;-63
2023/07/16 04:09:39;;;;;;;14.00;4.70;;;16.70;99.90;;;;;;5123391;28;20437;-66
2023/07/16 04:12:06;;;;;;;21.92;5.13;;;16.80;99.90;;;;;;5105715;28;20035;-68
2023/07/16 04:14:32;;;;;;;13.10;4.90;;;16.90;99.90;;;;;;5090417;28;20039;-65
2023/07/16 04:16:58;;;;;;;12.05;5.05;;;17.00;99.90;;;;;;5125457;28;20405;-69
2023/07/16 04:19:24;;;;;;;13.48;4.88;;;17.00;99.90;;;;;;5123696;28;20049;-65
2023/07/16 04:21:49;;;;;;;14.57;4.85;;;17.20;99.90;;;;;;5124235;28;20118;-68
2023/07/16 04:24:15;;;;;;;12.75;5.05;;;17.30;99.90;;;;;;5125035;28;20046;-66
2023/07/16 04:26:41;;;;;;;15.85;5.50;;;17.30;99.90;;;;;;5087677;28;20039;-63
2023/07/16 04:29:06;;;;;;;13.75;4.88;;;17.40;99.90;;;;;;5105691;28;20039;-66
2023/07/16 04:31:32;;;;;;;14.07;4.97;;;17.60;99.90;;;;;;5093355;27;20039;-64
2023/07/16 04:33:57;;;;;;;16.33;5.57;;;17.70;99.90;;;;;;5128848;27;20065;-66
2023/07/16 04:36:23;;;;;;;16.42;5.57;;;17.80;99.90;;;;;;5092308;27;20031;-65
2023/07/16 04:38:49;;;;;;;19.77;5.82;;;17.90;99.90;;;;;;5092646;27;20183;-65
2023/07/16 04:41:16;;;;;;;13.35;5.45;;;17.90;99.90;;;;;;5127983;27;20038;-64
2023/07/16 04:43:42;;;;;;;14.02;4.90;;;18.00;99.90;;;;;;5129086;27;20126;-67
2023/07/16 04:46:07;;;;;;;15.40;5.30;;;18.20;99.90;;;;;;5129056;27;20264;-65
2023/07/16 04:48:33;;;;;;;18.83;5.28;;;18.30;99.90;;;;;;5127272;27;20036;-63
2023/07/16 04:50:59;;;;;;;17.60;4.72;;;18.40;99.90;;;;;;5127547;27;20042;-63
2023/07/16 04:53:25;;;;;;;14.73;5.40;;;18.40;99.90;;;;;;5093202;27;20035;-64
2023/07/16 04:55:51;;;;;;;22.65;5.68;;;18.40;99.90;;;;;;5127358;27;20682;-66
2023/07/16 04:58:17;;;;;;;15.07;4.70;;;18.50;99.90;;;;;;5109911;27;20054;-65
2023/07/16 05:00:42;;;;;;;11.48;5.57;;;18.60;99.90;;;;;;5127759;27;20035;-68
2023/07/16 05:03:08;;;;;;;17.92;5.38;;;18.60;99.90;;;;;;5129157;27;20405;-65
2023/07/16 05:05:34;;;;;;;16.33;5.22;;;18.70;99.90;;;;;;5108059;27;20219;-66
2023/07/16 05:08:00;;;;;;;16.52;5.18;;;18.80;99.90;;;;;;5109422;27;20046;-63
2023/07/16 05:10:27;;;;;;;14.57;4.72;;;19.00;99.90;;;;;;5107986;27;20046;-66
2023/07/16 05:12:53;;;;;;;13.20;4.88;;;19.20;99.90;;;;;;5109170;27;20042;-64
2023/07/16 05:15:19;;;;;;;15.05;4.90;;;19.30;99.90;;;;;;5109036;27;20083;-69
2023/07/16 05:17:45;;;;;;;16.38;4.93;;;19.40;99.90;;;;;;5093074;27;20134;-66
2023/07/16 05:20:11;;;;;;;12.45;4.80;;;19.90;99.90;;;;;;5127218;27;20473;-66
2023/07/16 05:22:36;;;;;;;12.85;4.18;;;20.30;99.90;;;;;;5109364;27;20044;-63
2023/07/16 05:25:02;;;;;;;16.55;5.03;;;20.40;99.90;;;;;;5108168;27;20051;-67
2023/07/16 05:27:28;;;;;;;13.38;4.07;;;20.00;99.90;;;;;;5125682;27;20049;-68
2023/07/16 05:29:54;;;;;;;16.60;4.88;;;19.80;99.90;;;;;;5126919;27;20416;-65
2023/07/16 05:32:21;;;;;;;15.55;4.90;;;19.70;99.90;;;;;;5109916;27;20111;-66
2023/07/16 05:34:47;;;;;;;10.80;3.88;;;19.60;99.90;;;;;;5107527;27;20981;-64
2023/07/16 05:37:12;;;;;;;13.07;3.88;;;19.60;99.90;;;;;;5110250;27;20043;-62
2023/07/16 05:39:38;;;;;;;10.50;3.67;;;19.50;99.90;;;;;;5109278;27;20047;-65
2023/07/16 05:42:04;;;;;;;12.75;3.72;;;19.60;99.90;;;;;;5090258;27;20050;-63
2023/07/16 05:44:30;;;;;;;13.23;4.15;;;19.50;99.90;;;;;;5127948;27;20117;-64
2023/07/16 05:46:56;;;;;;;16.33;4.10;;;19.40;99.90;;;;;;5108461;27;20545;-63
2023/07/16 05:49:21;;;;;;;14.50;4.45;;;19.40;99.90;;;;;;5108715;27;20394;-68
2023/07/16 05:51:47;;;;;;;14.10;4.53;;;19.40;99.90;;;;;;5126382;27;20245;-64
2023/07/16 05:54:13;;;;;;;12.55;3.90;;;19.40;99.90;;;;;;5126590;27;20035;-67
2023/07/16 05:56:40;;;;;;;13.25;3.97;;;19.40;99.90;;;;;;5107669;27;20500;-67
2023/07/16 05:59:05;;;;;;;12.90;4.05;;;19.40;99.90;;;;;;5108116;27;20122;-66
2023/07/16 06:01:31;;;;;;;17.92;4.28;;;19.30;99.90;;;;;;5127404;27;20131;-65
2023/07/16 06:03:56;;;;;;;12.40;4.03;;;19.40;99.90;;;;;;5108835;27;20092;-63
2023/07/16 06:06:22;;;;;;;10.60;4.68;;;19.30;99.90;;;;;;5126844;27;20069;-65
2023/07/16 06:08:48;;;;;;;14.80;4.15;;;19.30;99.90;;;;;;5101659;27;20035;-65
2023/07/16 06:11:14;;;;;;;16.10;4.68;;;19.30;99.90;;;;;;5091177;28;20651;-67
2023/07/16 06:13:39;;;;;;;14.25;4.10;;;19.30;99.90;;;;;;5087610;28;20148;-64
2023/07/16 06:16:05;;;;;;;13.32;4.20;;;19.20;99.90;;;;;;5088326;28;20040;-68
2023/07/16 06:18:31;;;;;;;12.65;4.10;;;19.20;99.90;;;;;;5088719;28;20084;-67
2023/07/16 06:20:57;;;;;;;15.55;4.30;;;19.10;99.90;;;;;;5110815;27;20050;-65
2023/07/16 06:23:22;;;;;;;9.73;3.72;;;19.10;99.90;;;;;;5106413;28;20640;-69
2023/07/16 06:25:49;;;;;;;15.05;4.65;;;19.00;99.90;;;;;;5096449;27;20046;-67
2023/07/16 06:28:15;;;;;;;11.68;4.60;;;19.00;99.90;;;;;;5107502;27;20050;-67
2023/07/16 06:30:41;;;;;;;9.85;3.90;;;18.90;99.90;;;;;;5121923;27;20111;-66
2023/07/16 06:33:07;;;;;;;16.73;4.20;;;18.70;99.90;;;;;;5089380;27;20041;-67
2023/07/16 06:35:33;;;;;;;17.45;4.32;;;18.70;99.90;;;;;;5087054;27;20054;-66
2023/07/16 06:37:58;;;;;;;17.92;4.97;;;18.60;99.90;;;;;;5105925;28;20405;-65
2023/07/16 06:40:24;;;;;;;12.93;4.70;;;18.70;99.90;;;;;;5095235;27;20481;-67
2023/07/16 06:42:50;;;;;;;12.35;4.60;;;18.70;99.90;;;;;;5087128;28;20112;-64
2023/07/16 06:45:17;;;;;;;13.30;4.15;;;18.60;99.90;;;;;;5105010;28;20040;-66
2023/07/16 06:47:43;;;;;;;15.23;4.88;;;18.60;99.90;;;;;;5099224;28;20036;-66
2023/07/16 06:50:09;;;;;;;16.35;5.57;;;18.50;99.90;;;;;;5081408;27;20638;-71
2023/07/16 06:52:35;;;;;;;14.05;5.45;;;18.60;99.90;;;;;;5100363;28;20042;-68
2023/07/16 06:55:00;;;;;;;14.13;5.10;;;18.60;99.90;;;;;;5121751;27;20348;-66
2023/07/16 06:57:26;;;;;;;15.48;5.15;;;18.60;99.90;;;;;;5111502;27;20489;-68
2023/07/16 06:59:52;;;;;;;11.98;5.03;;;18.60;99.90;;;;;;5104004;27;20043;-67
2023/07/16 07:02:19;;;;;;;15.77;5.32;;;18.60;99.90;;;;;;5080114;27;20346;-69
2023/07/16 07:04:45;;;;;;;11.40;4.18;;;18.60;99.90;;;;;;5120961;27;20050;-69
2023/07/16 07:07:10;;;;;;;13.77;5.00;;;18.70;99.90;;;;;;5098729;28;20148;-65
2023/07/16 07:09:36;;;;;;;13.63;5.28;;;18.80;99.90;;;;;;5093908;28;20051;-66
2023/07/16 07:12:02;;;;;;;20.83;5.30;;;18.70;99.90;;;;;;5093897;27;20122;-67
2023/07/16 07:14:28;;;;;;;14.60;6.40;;;18.70;99.90;;;;;;5086895;28;20624;-65
2023/07/16 07:16:53;;;;;;;12.15;4.68;;;18.60;99.90;;;;;;5086663;28;20039;-67
2023/07/16 07:19:21;;;;;;;17.42;6.18;;;18.50;99.90;;;;;;5106876;27;20122;-67
2023/07/16 07:21:47;;;;;;;16.50;5.35;;;18.50;99.90;;;;;;5105595;27;20039;-71
2023/07/16 07:24:13;;;;;;;14.65;5.13;;;18.50;99.90;;;;;;5107586;27;20081;-66
2023/07/16 07:26:38;;;;;;;14.10;4.82;;;18.60;99.90;;;;;;5108935;27;20150;-68
2023/07/16 07:29:04;;;;;;;13.75;5.57;;;18.60;99.90;;;;;;5112192;27;20100;-66
2023/07/16 07:31:29;;;;;;;11.93;5.32;;;18.60;99.90;;;;;;5105549;27;20038;-68
2023/07/16 07:33:57;;;;;;;14.13;5.10;;;18.60;99.90;;;;;;5093128;27;20088;-67
2023/07/16 07:36:22;;;;;;;15.07;4.82;;;18.60;99.90;;;;;;5093437;28;20036;-64
2023/07/16 07:38:48;;;;;;;12.30;4.63;;;18.70;99.90;;;;;;5089276;28;20042;-65
2023/07/16 07:41:14;;;;;;;12.18;5.18;;;18.70;99.90;;;;;;5098327;27;20047;-69
2023/07/16 07:43:39;;;;;;;18.27;5.55;;;18.80;99.90;;;;;;5079459;28;20545;-68
2023/07/16 07:46:05;;;;;;;12.88;4.88;;;18.70;99.90;;;;;;5099942;27;20035;-64
2023/07/16 07:48:31;;;;;;;12.68;5.03;;;18.70;99.90;;;;;;5106070;27;20141;-66
2023/07/16 07:50:57;;;;;;;11.68;4.72;;;18.80;99.90;;;;;;5110258;27;20044;-69
2023/07/16 07:53:23;;;;;;;12.52;5.13;;;18.90;99.90;;;;;;5098926;27;20417;-65
2023/07/16 07:55:48;;;;;;;14.50;5.05;;;19.10;99.90;;;;;;5096540;27;20035;-64
2023/07/16 07:58:14;;;;;;;12.23;4.78;;;19.20;99.90;;;;;;5095894;28;20147;-64
2023/07/16 08:00:40;;;;;;;14.20;4.95;;;19.30;99.90;;;;;;5102552;28;20036;-68
2023/07/16 08:03:05;;;;;;;12.88;5.88;;;19.20;99.90;;;;;;5093185;28;20039;-64
2023/07/16 08:05:31;;;;;;;14.82;4.53;;;19.20;99.90;;;;;;5078240;28;20055;-65
2023/07/16 08:07:57;;;;;;;18.73;5.38;;;19.10;99.90;;;;;;5090894;28;20046;-69
2023/07/16 08:10:22;;;;;;;13.77;4.75;;;19.10;99.90;;;;;;5120985;27;20031;-64
2023/07/16 08:12:48;;;;;;;12.13;4.97;;;19.10;99.90;;;;;;5103413;28;20032;-67
2023/07/16 08:15:14;;;;;;;12.98;5.00;;;19.00;99.90;;;;;;5085185;28;20074;-67
2023/07/16 08:17:44;;;;;;;19.48;5.03;;;19.00;99.90;;;;;;5089096;28;20559;-65
2023/07/16 08:20:10;;;;;;;12.18;4.80;;;19.00;99.90;;;;;;5087203;28;20040;-64
2023/07/16 08:22:36;;;;;;;12.05;4.97;;;19.00;99.90;;;;;;5108486;28;20370;-65
2023/07/16 08:25:03;;;;;;;12.75;5.05;;;19.00;99.90;;;;;;5105909;28;20044;-67
2023/07/16 08:27:29;;;;;;;13.07;4.57;;;19.00;99.90;;;;;;5121808;28;20045;-70
2023/07/16 08:29:55;;;;;;;9.80;4.60;;;19.00;99.90;;;;;;5091616;28;20051;-68
2023/07/16 08:32:21;;;;;;;12.90;4.75;;;18.90;99.90;;;;;;5086324;28;20039;-67
2023/07/16 08:34:47;;;;;;;15.15;5.15;;;18.90;99.90;;;;;;5103829;28;20658;-69
2023/07/16 08:37:13;;;;;;;11.88;4.82;;;19.00;99.90;;;;;;5091974;28;20035;-68
2023/07/16 08:39:39;;;;;;;13.35;4.63;;;19.00;99.90;;;;;;5082496;28;20220;-67
2023/07/16 08:42:05;;;;;;;14.98;5.07;;;19.10;99.90;;;;;;5100271;28;20035;-69
2023/07/16 08:44:31;;;;;;;13.82;4.90;;;19.20;99.90;;;;;;5096196;28;20531;-64
2023/07/16 08:46:58;;;;;;;15.75;5.85;;;19.20;99.90;;;;;;5085244;28;20043;-65
2023/07/16 08:49:25;;;;;;;14.90;4.82;;;19.10;99.90;;;;;;5114016;28;20046;-64
2023/07/16 08:51:54;;;;;;;14.57;5.40;;;19.00;99.90;;;;;;5112281;28;20100;-65
2023/07/16 08:54:19;;;;;;;12.80;5.00;;;19.00;99.90;;;;;;5114025;28;20048;-63
2023/07/16 08:56:47;;;;;;;12.52;4.45;;;19.10;99.90;;;;;;5084728;28;20474;-64
2023/07/16 08:59:15;;;;;;;13.32;4.80;;;19.10;99.90;;;;;;5099635;28;20426;-70
2023/07/16 09:01:40;;;;;;;14.07;5.28;;;19.20;99.90;;;;;;5085809;28;20517;-66
2023/07/16 09:04:06;;;;;;;13.65;4.82;;;19.40;99.90;;;;;;5090476;28;20170;-66
2023/07/16 09:06:32;;;;;;;10.50;4.95;;;19.60;99.90;;;;;;5078955;28;20122;-65
2023/07/16 09:08:58;;;;;;;17.13;5.47;;;19.70;99.40;;;;;;5094166;28;20844;-64
2023/07/16 09:11:23;;;;;;;13.63;5.32;;;19.80;99.10;;;;;;5090768;28;20126;-69
2023/07/16 09:13:50;;;;;;;16.33;6.03;;;19.80;99.10;;;;;;5102218;28;20897;-67
2023/07/16 09:16:18;;;;;;;11.55;5.45;;;19.80;99.40;;;;;;5103801;28;20031;-70
2023/07/16 09:18:45;;;;;;;16.90;6.80;;;19.80;99.50;;;;;;5111432;27;20043;-69
2023/07/16 09:21:10;;;;;;;14.98;5.47;;;19.90;99.40;;;;;;5073235;28;20039;-68
2023/07/16 09:23:36;;;;;;;11.73;5.35;;;19.80;99.50;;;;;;5088769;28;20092;-66
2023/07/16 09:26:05;;;;;;;16.60;5.30;;;19.80;99.50;;;;;;5089389;28;20069;-70
2023/07/16 09:28:32;;;;;;;11.25;4.65;;;19.80;99.60;;;;;;5106772;28;20100;-66
2023/07/16 09:31:07;;;;;;;15.30;4.93;;;19.70;99.20;;;;;;5074388;27;20038;-68
2023/07/16 09:33:33;;;;;;;14.93;5.13;;;19.70;99.00;;;;;;5110163;27;20498;-66
2023/07/16 09:35:59;;;;;;;12.63;4.47;;;19.70;99.10;;;;;;5097918;27;20038;-69
2023/07/16 09:38:27;;;;;;;19.45;4.63;;;19.70;99.10;;;;;;5100209;27;20050;-66
2023/07/16 09:40:56;;;;;;;14.32;4.88;;;19.70;99.00;;;;;;5108458;27;20036;-65
2023/07/16 09:43:22;;;;;;;12.38;4.95;;;19.60;99.00;;;;;;5071850;28;20043;-68
2023/07/16 09:45:47;;;;;;;14.38;4.88;;;19.50;99.10;;;;;;5104183;27;20047;-66
2023/07/16 09:48:14;;;;;;;11.23;4.25;;;19.60;99.30;;;;;;5091073;27;20069;-71
2023/07/16 09:50:45;;;;;;;16.02;4.60;;;19.60;99.40;;;;;;5088316;27;20378;-72
2023/07/16 09:53:11;;;;;;;15.18;4.38;;;19.60;99.50;;;;;;5107668;28;20114;-65
2023/07/16 09:55:37;;;;;;;15.77;4.80;;;19.70;99.60;;;;;;5093529;27;20359;-68
2023/07/16 09:58:08;;;;;;;16.25;5.00;;;19.70;99.50;;;;;;5105860;27;20059;-64
2023/07/16 10:00:37;;;;;;;11.05;4.63;;;19.80;99.60;;;;;;5106991;28;20761;-65
2023/07/16 10:03:05;;;;;;;12.25;5.00;;;19.80;99.50;;;;;;5116203;27;20043;-68
2023/07/16 10:05:31;;;;;;;16.05;5.55;;;19.90;99.60;;;;;;5082189;28;20048;-68
2023/07/16 10:07:59;;;;;;;13.80;4.00;;;19.80;99.30;;;;;;5092457;27;20425;-66
2023/07/16 10:10:43;;;;;;;10.73;4.00;;;19.80;99.00;;;;;;5091731;27;20066;-66
2023/07/16 10:13:12;;;;;;;9.45;4.45;;;19.80;98.80;;;;;;5101874;28;20518;-63
2023/07/16 10:15:39;;;;;;;12.20;4.90;;;19.70;98.70;;;;;;5108196;27;20451;-66
2023/07/16 10:18:05;;;;;;;13.77;4.95;;;19.70;98.60;;;;;;5099775;27;20039;-62
2023/07/16 10:20:36;;;;;;;13.30;4.20;;;19.70;98.60;;;;;;5101803;27;20044;-71
2023/07/16 10:23:18;;;;;;;13.18;4.80;;;19.60;98.60;;;;;;5091400;27;20425;-69
2023/07/16 10:26:07;;;;;;;12.65;5.10;;;19.60;98.80;;;;;;5089787;27;20096;-68
2023/07/16 10:28:37;;;;;;;11.35;4.90;;;19.60;98.60;;;;;;5087325;27;20028;-69
2023/07/16 10:31:03;;;;;;;26.10;7.05;;;19.50;98.80;;;;;;5080347;27;20071;-63
2023/07/16 10:33:29;;;;;;;11.85;5.72;;;19.60;98.80;;;;;;5116613;27;20077;-66
2023/07/16 10:35:58;;;;;;;13.43;4.75;;;19.70;99.10;;;;;;5106578;27;20131;-65
2023/07/16 10:38:24;;;;;;;16.73;5.03;;;19.90;98.90;;;;;;5114405;27;20135;-62
2023/07/16 10:40:50;;;;;;;12.73;4.70;;;20.10;99.00;;;;;;5095481;27;20468;-64
2023/07/16 10:43:16;;;;;;;13.77;4.82;;;20.30;98.90;;;;;;5125108;27;20112;-69
2023/07/16 10:45:41;;;;;;;13.15;4.60;;;20.40;98.40;;;;;;5090938;27;20091;-64
2023/07/16 10:48:07;;;;;;;14.80;4.93;;;20.40;98.40;;;;;;5116189;27;20042;-65
2023/07/16 10:50:34;;;;;;;14.50;4.88;;;20.40;98.70;;;;;;5086522;27;20685;-65
2023/07/16 10:53:00;;;;;;;11.65;4.35;;;20.40;98.60;;;;;;5073973;27;20071;-66
2023/07/16 10:55:29;;;;;;;15.20;4.80;;;20.20;98.30;;;;;;5116225;27;20127;-60
2023/07/16 10:57:56;;;;;;;11.32;4.20;;;20.20;98.40;;;;;;5093463;27;20042;-65
2023/07/16 11:00:22;;;;;;;13.38;4.45;;;20.20;98.30;;;;;;5093050;28;20047;-67
2023/07/16 11:02:50;;;;;;;10.88;4.63;;;20.20;98.20;;;;;;5087547;28;20051;-63
2023/07/16 11:05:18;;;;;;;11.52;4.65;;;20.20;98.40;;;;;;5123858;27;20055;-66
2023/07/16 11:07:44;;;;;;;12.25;4.15;;;20.20;98.60;;;;;;5107235;27;20063;-67
2023/07/16 11:10:11;;;;;;;13.50;5.18;;;20.10;98.60;;;;;;5089302;27;20039;-69
2023/07/16 11:12:37;;;;;;;10.57;4.32;;;20.10;98.50;;;;;;5101985;27;20050;-64
2023/07/16 11:15:03;;;;;;;13.77;4.68;;;20.20;98.50;;;;;;5092346;27;20500;-69
2023/07/16 11:17:28;;;;;;;14.40;4.82;;;20.20;98.60;;;;;;5104378;27;20066;-65
2023/07/16 11:19:55;;;;;;;12.02;4.32;;;20.30;98.50;;;;;;5097991;27;20461;-65
2023/07/16 11:22:27;;;;;;;11.38;4.05;;;20.50;98.40;;;;;;5086927;28;20047;-68
2023/07/16 11:24:53;;;;;;;12.63;4.20;;;20.50;97.90;;;;;;5070455;27;20104;-67
2023/07/16 11:27:27;;;;;;;12.65;4.80;;;20.50;97.50;;;;;;5101876;28;20039;-65
2023/07/16 11:30:00;;;;;;;13.65;4.90;;;20.40;97.60;;;;;;5098659;27;20072;-62
2023/07/16 11:32:46;;;;;;;12.93;4.65;;;20.40;97.80;;;;;;5112832;27;20078;-64
2023/07/16 11:35:17;;;;;;;13.90;4.50;;;20.40;98.00;;;;;;5114443;27;20070;-68
2023/07/16 11:37:43;;;;;;;12.55;3.88;;;20.30;98.10;;;;;;5086546;28;20047;-66
2023/07/16 11:40:10;;;;;;;13.07;4.10;;;20.30;98.00;;;;;;5090442;27;20046;-66
2023/07/16 11:42:40;;;;;;;11.57;4.53;;;20.30;98.10;;;;;;5100839;27;20058;-68
2023/07/16 11:45:18;;;;;;;15.43;4.40;;;20.20;97.90;;;;;;5098055;27;20043;-69
2023/07/16 11:47:43;;;;;;;14.38;3.80;;;20.10;97.80;;;;;;5103597;27;20446;-66
2023/07/16 11:50:09;;;;;;;10.13;4.20;;;20.10;97.90;;;;;;5095709;27;20123;-66
2023/07/16 11:52:35;;;;;;;14.70;4.43;;;20.00;98.00;;;;;;5114021;27;20027;-65
2023/07/16 11:55:01;;;;;;;12.27;4.65;;;19.90;98.00;;;;;;5096640;27;20043;-67
2023/07/16 11:57:27;;;;;;;13.65;4.50;;;19.80;98.20;;;;;;5095421;27;20043;-67
2023/07/16 11:59:53;;;;;;;12.95;4.32;;;19.70;98.30;;;;;;5091832;27;20509;-66
2023/07/16 12:02:20;;;;;;;10.75;4.85;;;19.70;98.30;;;;;;5108159;27;20055;-64
2023/07/16 12:04:46;;;;;;;14.93;5.22;;;19.70;98.50;;;;;;5096725;28;20560;-65
2023/07/16 12:07:11;;;;;;;12.65;4.95;;;19.80;98.60;;;;;;5092189;28;20070;-66
2023/07/16 12:09:37;;;;;;;13.23;5.20;;;19.90;98.50;;;;;;5096394;28;20049;-65
2023/07/16 12:12:03;;;;;;;11.57;4.90;;;20.00;98.60;;;;;;5095172;28;20044;-66
2023/07/16 12:14:29;;;;;;;13.60;6.22;;;20.10;98.70;;;;;;5095880;28;20042;-68
2023/07/16 12:16:56;;;;;;;10.60;4.70;;;20.10;98.60;;;;;;5106666;28;20043;-70
2023/07/16 12:19:22;;;;;;;11.88;5.15;;;20.20;98.50;;;;;;5105507;28;20067;-69
2023/07/16 12:21:47;;;;;;;11.93;5.25;;;20.20;98.50;;;;;;5105733;28;20087;-66
2023/07/16 12:24:13;;;;;;;13.52;4.95;;;20.20;98.70;;;;;;5106586;28;20042;-61
2023/07/16 12:26:38;;;;;;;11.50;4.72;;;20.20;98.70;;;;;;5078982;28;20294;-66
2023/07/16 12:29:05;;;;;;;15.48;5.13;;;20.20;98.60;;;;;;5106524;28;20057;-66
2023/07/16 12:31:34;;;;;;;12.80;5.10;;;20.10;98.70;;;;;;5119432;28;20118;-66
2023/07/16 12:34:04;;;;;;;10.93;4.88;;;20.10;98.80;;;;;;5124659;28;20043;-67